Time;durP1;ratioP1;P1;durP2;ratioP2;P2;SDS_P1;SDS_P2;PMS_P1;PMS_P2;Temp;Humidity;BMP_temperature;BMP_pressure;BME280_temperature;BME280_humidity;BME280_pressure;Samples;Min_cycle;Max_cycle;Signal;HPM_P1;HPM_P2
2024/01/07 00:01:34;;;;;;;8.40;7.38;;;4.00;99.90;;;;;;5014907;28;20057;-80
2024/01/07 00:03:59;;;;;;;9.70;7.82;;;3.90;99.90;;;;;;5020853;28;20030;-80
2024/01/07 00:06:25;;;;;;;10.23;7.70;;;3.90;99.90;;;;;;5013603;28;20030;-80
2024/01/07 00:08:50;;;;;;;8.27;7.47;;;3.90;99.90;;;;;;5017250;28;20041;-80
2024/01/07 00:11:16;;;;;;;8.35;7.53;;;5.10;99.90;;;;;;5014060;28;20075;-80
2024/01/07 00:13:41;;;;;;;8.52;7.25;;;4.20;99.90;;;;;;5022418;28;20362;-80
2024/01/07 00:16:07;;;;;;;7.60;6.90;;;3.90;99.90;;;;;;5032882;28;20053;-79
2024/01/07 00:18:32;;;;;;;7.78;7.00;;;3.90;99.90;;;;;;5032866;28;20025;-79
2024/01/07 00:20:58;;;;;;;8.18;7.38;;;3.90;99.90;;;;;;5031836;28;20025;-79
2024/01/07 00:23:24;;;;;;;7.03;6.38;;;3.80;99.90;;;;;;5028297;28;20099;-80
2024/01/07 00:25:49;;;;;;;8.88;7.97;;;3.80;99.90;;;;;;5028257;28;20026;-80
2024/01/07 00:28:15;;;;;;;8.27;7.47;;;3.70;99.90;;;;;;5024665;28;20040;-80
2024/01/07 00:30:41;;;;;;;8.82;7.93;;;3.80;99.90;;;;;;5014879;28;20081;-79
2024/01/07 00:33:06;;;;;;;12.30;8.23;;;3.70;99.90;;;;;;5032246;28;20025;-80
2024/01/07 00:35:32;;;;;;;9.18;8.23;;;3.70;99.90;;;;;;5030853;28;20030;-80
2024/01/07 00:37:58;;;;;;;9.85;8.68;;;3.70;99.90;;;;;;5022515;28;20041;-80
2024/01/07 00:40:23;;;;;;;9.50;8.52;;;3.70;99.90;;;;;;5026073;28;20028;-80
2024/01/07 00:42:50;;;;;;;9.90;8.90;;;3.60;99.90;;;;;;5028139;28;20503;-79
2024/01/07 00:45:16;;;;;;;9.25;8.10;;;3.60;99.90;;;;;;5032651;28;20083;-80
2024/01/07 00:47:41;;;;;;;9.48;8.50;;;3.60;99.90;;;;;;5028498;28;20021;-80
2024/01/07 00:50:07;;;;;;;9.10;8.20;;;3.60;99.90;;;;;;5012303;28;20049;-80
2024/01/07 00:52:32;;;;;;;9.02;8.02;;;3.60;99.90;;;;;;5021575;28;20070;-80
2024/01/07 00:54:58;;;;;;;9.68;8.60;;;3.60;99.90;;;;;;5032932;28;20030;-80
2024/01/07 00:57:24;;;;;;;9.23;8.32;;;3.60;99.90;;;;;;5025349;28;20018;-80
2024/01/07 00:59:50;;;;;;;8.90;8.10;;;3.60;99.90;;;;;;5013134;28;20048;-79
2024/01/07 01:02:16;;;;;;;9.30;8.30;;;3.60;99.90;;;;;;5030274;28;20030;-80
2024/01/07 01:04:41;;;;;;;8.75;7.78;;;3.60;99.90;;;;;;5015566;28;20029;-80
2024/01/07 01:07:07;;;;;;;9.20;8.32;;;3.60;99.90;;;;;;5021346;28;20021;-80
2024/01/07 01:09:33;;;;;;;9.98;8.98;;;3.60;99.90;;;;;;5014069;28;20129;-79
2024/01/07 01:11:59;;;;;;;9.15;8.20;;;3.60;99.90;;;;;;5013983;28;20577;-79
2024/01/07 01:14:24;;;;;;;10.50;9.02;;;3.60;99.90;;;;;;5030773;28;20112;-78
2024/01/07 01:16:50;;;;;;;9.75;8.52;;;3.60;99.90;;;;;;5013189;28;20041;-79
2024/01/07 01:19:17;;;;;;;10.95;9.73;;;3.60;99.90;;;;;;5012050;28;20018;-79
2024/01/07 01:21:42;;;;;;;10.07;8.63;;;3.60;99.90;;;;;;5012237;28;20021;-79
2024/01/07 01:24:08;;;;;;;10.60;9.50;;;3.50;99.90;;;;;;5012668;28;20041;-80
2024/01/07 01:26:33;;;;;;;11.90;9.20;;;3.50;99.90;;;;;;5029140;28;20018;-80
2024/01/07 01:28:59;;;;;;;9.75;8.75;;;3.60;99.90;;;;;;5030585;28;20033;-80
2024/01/07 01:31:24;;;;;;;10.75;9.07;;;3.60;99.90;;;;;;5019070;28;20042;-80
2024/01/07 01:33:50;;;;;;;11.10;9.68;;;3.60;99.90;;;;;;5023372;28;20028;-79
2024/01/07 01:36:24;;;;;;;10.65;8.77;;;3.60;99.90;;;;;;5027315;28;20088;-79
2024/01/07 01:38:49;;;;;;;11.23;9.90;;;3.40;99.90;;;;;;5031283;28;20392;-80
2024/01/07 01:41:17;;;;;;;11.98;9.25;;;3.60;99.90;;;;;;5018076;28;20117;-80
2024/01/07 01:43:42;;;;;;;11.45;10.00;;;3.60;99.90;;;;;;5011965;28;20556;-80
2024/01/07 01:46:08;;;;;;;9.95;8.27;;;3.50;99.90;;;;;;5024050;28;20033;-80
2024/01/07 01:48:35;;;;;;;11.38;9.68;;;3.50;99.90;;;;;;5031476;28;20039;-80
2024/01/07 01:51:02;;;;;;;10.55;9.50;;;3.50;99.90;;;;;;5030692;28;20037;-80
2024/01/07 01:53:28;;;;;;;10.07;9.05;;;3.50;99.90;;;;;;5031010;28;20033;-80
2024/01/07 01:55:56;;;;;;;11.70;9.98;;;3.50;99.90;;;;;;5023480;28;20120;-80
2024/01/07 01:58:23;;;;;;;12.68;9.27;;;3.50;99.90;;;;;;5021524;28;20105;-80
2024/01/07 02:00:50;;;;;;;12.30;9.48;;;3.50;99.90;;;;;;5022000;28;20113;-80
2024/01/07 02:03:17;;;;;;;9.30;8.40;;;4.60;99.90;;;;;;5020409;28;20041;-80
2024/01/07 02:05:42;;;;;;;9.90;8.85;;;3.40;99.90;;;;;;5026618;28;20034;-79
2024/01/07 02:08:10;;;;;;;10.77;8.75;;;3.40;99.90;;;;;;5031299;28;20032;-79
2024/01/07 02:10:36;;;;;;;11.30;9.63;;;3.40;99.90;;;;;;5025807;28;20053;-79
2024/01/07 02:13:03;;;;;;;11.10;8.75;;;3.50;99.90;;;;;;5020441;28;20377;-79
2024/01/07 02:15:29;;;;;;;11.13;9.27;;;3.40;99.90;;;;;;5025144;28;20033;-80
2024/01/07 02:17:56;;;;;;;10.20;9.13;;;3.40;99.90;;;;;;5030319;28;20028;-80
2024/01/07 02:20:22;;;;;;;10.98;9.57;;;3.50;99.90;;;;;;5030289;28;20025;-80
2024/01/07 02:22:47;;;;;;;9.77;8.77;;;3.50;99.90;;;;;;5030707;28;20040;-80
2024/01/07 02:25:13;;;;;;;11.63;8.98;;;3.50;99.90;;;;;;5030132;28;20083;-80
2024/01/07 02:27:39;;;;;;;10.15;8.68;;;3.50;99.90;;;;;;5028413;28;20493;-80
2024/01/07 02:30:05;;;;;;;10.15;8.57;;;3.40;99.90;;;;;;5035551;28;20053;-80
2024/01/07 02:32:35;;;;;;;8.98;8.15;;;3.40;99.90;;;;;;5032982;28;20056;-80
2024/01/07 02:35:01;;;;;;;9.60;8.60;;;3.40;99.90;;;;;;5034514;28;20473;-80
2024/01/07 02:37:27;;;;;;;9.30;8.32;;;3.40;99.90;;;;;;5033591;28;20068;-80
2024/01/07 02:39:53;;;;;;;10.23;8.57;;;3.50;99.90;;;;;;5034354;28;20037;-80
2024/01/07 02:42:18;;;;;;;9.63;8.63;;;3.40;99.90;;;;;;5028655;28;20113;-80
2024/01/07 02:44:44;;;;;;;10.30;8.95;;;3.40;99.90;;;;;;5015033;28;20026;-80
2024/01/07 02:47:09;;;;;;;9.70;8.18;;;3.40;99.90;;;;;;5028276;28;20080;-80
2024/01/07 02:49:35;;;;;;;10.90;9.15;;;3.40;99.90;;;;;;5033135;28;20397;-80
2024/01/07 02:52:01;;;;;;;11.02;9.07;;;3.40;99.90;;;;;;5034411;28;20025;-80
2024/01/07 02:54:26;;;;;;;10.32;8.65;;;3.40;99.90;;;;;;5033103;28;20099;-80
2024/01/07 02:56:52;;;;;;;8.90;8.02;;;3.40;99.90;;;;;;5024659;28;20198;-80
2024/01/07 02:59:17;;;;;;;9.63;8.40;;;3.40;99.90;;;;;;5022335;28;20044;-80
2024/01/07 03:01:43;;;;;;;9.75;8.75;;;3.50;99.90;;;;;;5024486;28;20021;-80
2024/01/07 03:04:13;;;;;;;10.52;9.05;;;3.50;99.90;;;;;;5033859;28;20345;-80
2024/01/07 03:06:40;;;;;;;9.88;8.88;;;3.50;99.90;;;;;;5026784;28;20025;-80
2024/01/07 03:09:06;;;;;;;9.80;8.38;;;3.40;99.90;;;;;;5034473;28;20124;-80
2024/01/07 03:11:32;;;;;;;11.70;9.23;;;3.40;99.90;;;;;;5032274;28;20025;-80
2024/01/07 03:13:57;;;;;;;9.50;8.50;;;3.40;99.90;;;;;;5034302;28;20171;-80
2024/01/07 03:16:24;;;;;;;9.90;8.18;;;3.50;99.90;;;;;;5031689;28;20056;-80
2024/01/07 03:18:50;;;;;;;12.80;8.90;;;3.40;99.90;;;;;;5034054;28;20018;-80
2024/01/07 03:21:19;;;;;;;10.40;9.30;;;3.40;99.90;;;;;;5032373;28;20032;-80
2024/01/07 03:23:45;;;;;;;13.48;9.95;;;3.50;99.90;;;;;;5033550;28;20017;-80
2024/01/07 03:26:11;;;;;;;13.88;10.75;;;3.40;99.90;;;;;;5028965;28;20026;-80
2024/01/07 03:28:37;;;;;;;13.27;11.52;;;3.40;99.90;;;;;;5027709;28;20044;-80
2024/01/07 03:31:09;;;;;;;18.27;12.20;;;3.40;99.90;;;;;;5024717;28;20091;-80
2024/01/07 03:33:34;;;;;;;17.70;12.57;;;3.40;99.90;;;;;;5016532;28;20104;-80
2024/01/07 03:36:00;;;;;;;14.95;11.18;;;3.40;99.90;;;;;;5018124;28;20109;-80
2024/01/07 03:38:26;;;;;;;17.77;12.60;;;3.40;99.90;;;;;;5032591;28;20030;-80
2024/01/07 03:40:51;;;;;;;22.08;13.75;;;3.40;99.90;;;;;;5033013;28;20021;-80
2024/01/07 03:43:17;;;;;;;19.15;13.35;;;3.40;99.90;;;;;;5021407;28;20030;-80
2024/01/07 03:45:43;;;;;;;18.50;13.13;;;3.40;99.90;;;;;;5013787;28;20022;-80
2024/01/07 03:48:09;;;;;;;19.05;13.65;;;3.50;99.90;;;;;;5017937;28;20033;-80
2024/01/07 03:50:34;;;;;;;18.92;12.82;;;3.50;99.90;;;;;;5031105;28;20120;-80
2024/01/07 03:53:00;;;;;;;19.35;12.73;;;3.50;99.90;;;;;;5031552;28;20021;-80
2024/01/07 03:55:25;;;;;;;19.92;12.77;;;3.40;99.90;;;;;;5033372;28;20076;-80
2024/01/07 03:57:51;;;;;;;23.63;13.70;;;3.50;99.90;;;;;;5021233;28;20504;-80
2024/01/07 04:00:16;;;;;;;18.67;12.43;;;3.50;99.90;;;;;;5033149;28;20393;-80
2024/01/07 04:02:43;;;;;;;15.52;11.75;;;3.50;99.90;;;;;;5031894;28;20033;-80
2024/01/07 04:05:09;;;;;;;16.73;12.38;;;3.50;99.90;;;;;;5032354;28;20094;-80
2024/01/07 04:07:35;;;;;;;19.50;12.63;;;3.80;99.90;;;;;;5026527;28;20533;-79
2024/01/07 04:10:00;;;;;;;17.23;13.00;;;3.50;99.90;;;;;;5033629;28;20065;-79
2024/01/07 04:12:26;;;;;;;14.15;11.88;;;3.50;99.90;;;;;;5027453;28;20065;-81
2024/01/07 04:14:51;;;;;;;21.38;12.75;;;3.50;99.90;;;;;;5012919;28;20026;-79
2024/01/07 04:17:17;;;;;;;14.30;11.77;;;3.40;99.90;;;;;;5026230;28;20108;-81
2024/01/07 04:19:42;;;;;;;17.75;11.80;;;3.40;99.90;;;;;;5032429;28;20033;-81
2024/01/07 04:22:08;;;;;;;14.82;11.65;;;3.40;99.90;;;;;;5030050;28;20035;-80
2024/01/07 04:24:33;;;;;;;15.85;11.45;;;3.40;99.90;;;;;;5018869;28;20157;-80
2024/01/07 04:26:59;;;;;;;13.48;11.20;;;3.40;99.90;;;;;;5022657;28;20476;-80
2024/01/07 04:29:24;;;;;;;19.55;12.82;;;3.50;99.90;;;;;;5012751;28;20359;-80
2024/01/07 04:31:50;;;;;;;17.50;12.55;;;3.50;99.90;;;;;;5022386;28;20040;-80
2024/01/07 04:34:16;;;;;;;16.73;12.13;;;3.40;99.90;;;;;;5031919;28;20160;-80
2024/01/07 04:36:41;;;;;;;14.20;11.65;;;3.40;99.90;;;;;;5029682;28;20037;-80
2024/01/07 04:39:07;;;;;;;16.20;11.93;;;3.40;99.90;;;;;;5021377;28;20032;-80
2024/01/07 04:41:53;;;;;;;18.98;12.52;;;3.40;99.90;;;;;;5022120;28;20047;-80
2024/01/07 04:44:18;;;;;;;17.98;12.02;;;3.40;99.90;;;;;;5012097;28;20069;-81
2024/01/07 04:46:44;;;;;;;16.38;11.88;;;3.50;99.90;;;;;;5020291;28;20555;-80
2024/01/07 04:49:09;;;;;;;14.63;11.40;;;3.50;99.90;;;;;;5012118;28;20034;-81
2024/01/07 04:51:36;;;;;;;16.65;12.13;;;3.40;99.90;;;;;;5015618;28;20105;-80
2024/01/07 04:54:02;;;;;;;21.65;13.55;;;3.40;99.90;;;;;;5032710;28;20033;-80
2024/01/07 04:56:27;;;;;;;21.20;13.50;;;3.40;99.90;;;;;;5031276;28;20022;-80
2024/01/07 04:58:53;;;;;;;14.82;11.27;;;3.40;99.90;;;;;;5015983;28;20040;-81
2024/01/07 05:01:21;;;;;;;18.48;13.10;;;3.40;99.90;;;;;;5018123;28;20404;-81
2024/01/07 05:03:47;;;;;;;20.45;14.38;;;3.40;99.90;;;;;;5015624;28;20046;-80
2024/01/07 05:06:12;;;;;;;20.40;13.95;;;4.10;99.90;;;;;;5013262;28;20466;-80
2024/01/07 05:08:43;;;;;;;22.67;14.13;;;3.30;99.90;;;;;;5031164;28;20428;-80
2024/01/07 05:11:09;;;;;;;;;;;3.30;99.90;;;;;;5016467;28;20030;-79
2024/01/07 05:13:35;;;;;;;22.60;13.77;;;3.30;99.90;;;;;;5031177;28;19916;-80
2024/01/07 05:16:01;;;;;;;22.88;14.93;;;3.30;99.90;;;;;;5028408;28;20030;-80
2024/01/07 05:18:27;;;;;;;19.15;13.50;;;3.30;99.90;;;;;;5029683;28;20039;-80
2024/01/07 05:20:52;;;;;;;23.25;14.20;;;3.30;99.90;;;;;;5019525;28;20529;-80
2024/01/07 05:23:18;;;;;;;21.80;14.10;;;3.30;99.90;;;;;;5025297;28;20437;-80
2024/01/07 05:25:44;;;;;;;17.65;13.20;;;3.30;99.90;;;;;;5030351;28;20029;-80
2024/01/07 05:28:11;;;;;;;20.88;13.85;;;3.30;99.90;;;;;;5012508;28;20397;-80
2024/01/07 05:30:37;;;;;;;22.30;15.35;;;3.30;99.90;;;;;;5027856;28;20432;-80
2024/01/07 05:33:03;;;;;;;22.27;14.43;;;3.30;99.90;;;;;;5027702;28;20033;-79
2024/01/07 05:35:28;;;;;;;22.58;14.75;;;3.30;99.90;;;;;;5028186;28;20245;-80
2024/01/07 05:37:54;;;;;;;22.65;15.27;;;3.30;99.90;;;;;;5028998;28;20474;-79
2024/01/07 05:40:20;;;;;;;22.88;14.93;;;3.30;99.90;;;;;;5031691;28;20496;-80
2024/01/07 05:42:45;;;;;;;21.05;13.35;;;3.30;99.90;;;;;;5024351;28;20485;-80
2024/01/07 05:45:11;;;;;;;20.20;13.98;;;3.30;99.90;;;;;;5031157;28;20029;-80
2024/01/07 05:47:36;;;;;;;20.73;13.82;;;3.30;99.90;;;;;;5020414;28;20033;-80
2024/01/07 05:50:02;;;;;;;19.20;12.70;;;3.30;99.90;;;;;;5028961;28;20044;-80
2024/01/07 05:52:28;;;;;;;16.33;12.15;;;3.30;99.90;;;;;;5013491;28;20474;-80
2024/01/07 05:54:53;;;;;;;18.05;12.35;;;3.30;99.90;;;;;;5031676;28;20048;-80
2024/01/07 05:57:19;;;;;;;20.55;12.80;;;3.30;99.90;;;;;;5027036;28;20033;-80
2024/01/07 05:59:45;;;;;;;17.73;12.30;;;4.40;99.90;;;;;;5015599;28;20075;-80
2024/01/07 06:02:11;;;;;;;18.52;13.52;;;3.30;99.90;;;;;;5021740;28;20515;-80
2024/01/07 06:04:39;;;;;;;19.30;13.35;;;3.30;99.90;;;;;;5021941;28;20025;-81
2024/01/07 06:07:05;;;;;;;20.83;13.25;;;4.50;99.90;;;;;;5034284;28;20026;-81
2024/01/07 06:09:30;;;;;;;19.58;12.90;;;3.30;99.90;;;;;;5035680;28;20025;-82
2024/01/07 06:11:56;;;;;;;16.17;12.43;;;3.30;99.90;;;;;;5032795;28;20426;-81
2024/01/07 06:14:22;;;;;;;17.25;12.13;;;3.30;99.90;;;;;;5016235;28;20026;-81
2024/01/07 06:16:48;;;;;;;15.95;11.57;;;3.40;99.90;;;;;;5021978;28;20483;-79
2024/01/07 06:19:16;;;;;;;14.60;11.38;;;3.30;99.90;;;;;;5015957;28;20030;-82
2024/01/07 06:21:41;;;;;;;16.73;11.15;;;3.30;99.90;;;;;;5029950;28;20084;-81
2024/01/07 06:24:10;;;;;;;14.52;11.07;;;3.40;99.90;;;;;;5033078;28;20022;-81
2024/01/07 06:26:36;;;;;;;13.93;11.27;;;3.40;99.90;;;;;;5033373;28;20495;-81
2024/01/07 06:29:02;;;;;;;15.32;11.05;;;3.40;99.90;;;;;;5024527;28;20120;-81
2024/01/07 06:31:27;;;;;;;18.30;12.35;;;3.30;99.90;;;;;;5031508;28;20042;-82
2024/01/07 06:33:55;;;;;;;14.65;11.05;;;3.30;99.90;;;;;;5032346;28;20076;-81
2024/01/07 06:36:21;;;;;;;15.45;11.45;;;3.40;99.90;;;;;;5030336;28;20025;-81
2024/01/07 06:38:48;;;;;;;15.05;11.25;;;3.40;99.90;;;;;;5034019;28;20083;-80
2024/01/07 06:41:14;;;;;;;15.85;11.07;;;3.40;99.90;;;;;;5032316;28;20029;-81
2024/01/07 06:43:40;;;;;;;18.45;11.05;;;3.40;99.90;;;;;;5030575;28;20152;-80
2024/01/07 06:46:06;;;;;;;15.30;11.60;;;3.30;99.90;;;;;;5018387;28;20481;-82
2024/01/07 06:48:31;;;;;;;15.38;11.38;;;3.30;99.90;;;;;;5013210;28;20026;-80
2024/01/07 06:50:58;;;;;;;14.70;12.18;;;3.30;99.90;;;;;;5016781;28;20068;-82
2024/01/07 06:53:23;;;;;;;18.38;12.70;;;3.30;99.90;;;;;;5033883;28;20026;-81
2024/01/07 06:55:49;;;;;;;15.95;12.95;;;3.30;99.90;;;;;;5019149;28;20030;-80
2024/01/07 06:58:14;;;;;;;22.33;13.02;;;3.30;99.90;;;;;;5021658;28;20033;-80
2024/01/07 07:00:42;;;;;;;21.23;12.75;;;3.30;99.90;;;;;;5014414;28;20026;-80
2024/01/07 07:03:08;;;;;;;16.02;12.25;;;3.20;99.90;;;;;;5028635;28;20029;-80
2024/01/07 07:05:33;;;;;;;23.40;12.90;;;3.30;99.90;;;;;;5023540;28;20041;-79
2024/01/07 07:07:59;;;;;;;18.45;13.18;;;3.30;99.90;;;;;;5027963;28;20049;-81
2024/01/07 07:10:25;;;;;;;18.02;12.05;;;3.30;99.90;;;;;;5033041;28;20115;-82
2024/01/07 07:12:51;;;;;;;18.52;12.95;;;3.30;99.90;;;;;;5025607;28;20492;-81
2024/01/07 07:15:17;;;;;;;18.00;12.68;;;3.20;99.90;;;;;;5017769;28;20030;-81
2024/01/07 07:17:43;;;;;;;19.65;12.25;;;3.10;99.90;;;;;;5034228;28;20057;-81
2024/01/07 07:20:10;;;;;;;16.05;11.85;;;3.10;99.90;;;;;;5033678;28;20029;-82
2024/01/07 07:22:36;;;;;;;17.02;12.27;;;3.10;99.90;;;;;;5033998;28;20469;-80
2024/01/07 07:25:03;;;;;;;18.20;11.98;;;3.10;99.90;;;;;;5022864;28;20030;-81
2024/01/07 07:27:28;;;;;;;14.35;11.68;;;3.10;99.90;;;;;;5029862;28;20516;-82
2024/01/07 07:29:54;;;;;;;15.80;12.18;;;3.10;99.90;;;;;;5017810;28;20081;-79
2024/01/07 07:32:19;;;;;;;15.57;12.10;;;3.20;99.90;;;;;;5033642;28;20022;-79
2024/01/07 07:34:47;;;;;;;13.40;10.65;;;3.20;99.90;;;;;;5033737;28;20036;-79
2024/01/07 07:37:13;;;;;;;13.15;10.93;;;3.20;99.90;;;;;;5032314;28;20025;-79
2024/01/07 07:39:38;;;;;;;14.00;10.85;;;3.10;99.90;;;;;;5020107;28;20030;-80
2024/01/07 07:42:04;;;;;;;16.75;11.65;;;3.20;99.90;;;;;;5026113;28;20117;-80
2024/01/07 07:44:29;;;;;;;13.57;10.93;;;3.20;99.90;;;;;;5013750;28;20458;-80
2024/01/07 07:46:55;;;;;;;13.38;10.95;;;3.20;99.90;;;;;;5018990;28;20064;-80
2024/01/07 07:49:21;;;;;;;11.75;10.50;;;3.20;99.90;;;;;;5032348;28;20037;-81
2024/01/07 07:51:46;;;;;;;16.80;10.45;;;2.70;99.90;;;;;;5033147;28;20029;-81
2024/01/07 07:54:12;;;;;;;13.10;10.68;;;3.20;99.90;;;;;;5031228;28;20037;-80
2024/01/07 07:56:37;;;;;;;14.43;10.95;;;3.20;99.90;;;;;;5032884;28;20026;-81
2024/01/07 07:59:03;;;;;;;12.88;10.60;;;3.20;99.90;;;;;;5016522;28;20025;-81
2024/01/07 08:01:29;;;;;;;12.07;10.02;;;3.10;99.90;;;;;;5018482;28;20029;-81
2024/01/07 08:03:54;;;;;;;14.57;10.73;;;3.10;99.90;;;;;;5013450;28;20041;-81
2024/01/07 08:06:20;;;;;;;14.25;10.45;;;3.10;99.90;;;;;;5031704;28;20026;-81
2024/01/07 08:08:45;;;;;;;11.07;9.40;;;3.10;99.90;;;;;;5017985;28;20125;-81
2024/01/07 08:11:11;;;;;;;14.10;10.52;;;3.10;99.90;;;;;;5030951;28;20021;-81
2024/01/07 08:13:37;;;;;;;17.17;11.30;;;3.10;99.90;;;;;;5027152;28;20037;-81
2024/01/07 08:16:05;;;;;;;14.43;10.18;;;3.10;99.90;;;;;;5028863;28;20029;-81
2024/01/07 08:18:30;;;;;;;11.25;10.05;;;3.10;99.90;;;;;;5033054;28;20081;-81
2024/01/07 08:20:56;;;;;;;11.52;10.23;;;3.10;99.90;;;;;;5030555;28;20026;-80
2024/01/07 08:23:22;;;;;;;13.63;9.48;;;3.10;99.90;;;;;;5023500;28;20073;-82
2024/01/07 08:25:48;;;;;;;16.45;10.38;;;3.10;99.90;;;;;;5031270;28;20040;-81
2024/01/07 08:28:14;;;;;;;13.00;9.15;;;3.10;99.90;;;;;;5022328;28;20018;-81
2024/01/07 08:30:39;;;;;;;13.32;9.50;;;3.10;99.90;;;;;;5024330;28;20041;-81
2024/01/07 08:33:05;;;;;;;11.38;9.68;;;3.10;99.90;;;;;;5033203;28;20021;-81
2024/01/07 08:35:30;;;;;;;14.35;9.95;;;3.00;99.90;;;;;;5031690;28;20036;-80
2024/01/07 08:37:56;;;;;;;13.68;10.23;;;3.10;99.90;;;;;;5023809;28;20021;-79
2024/01/07 08:40:21;;;;;;;11.45;9.07;;;3.10;99.90;;;;;;5021387;28;20481;-79
2024/01/07 08:42:47;;;;;;;14.10;10.15;;;3.10;99.90;;;;;;5025760;28;20033;-78
2024/01/07 08:45:12;;;;;;;11.20;9.57;;;3.00;99.90;;;;;;5012654;28;20100;-79
2024/01/07 08:47:39;;;;;;;13.00;9.77;;;3.10;99.90;;;;;;5016193;28;20114;-79
2024/01/07 08:50:05;;;;;;;14.98;10.10;;;3.00;99.90;;;;;;5019156;28;20052;-79
2024/01/07 08:52:31;;;;;;;14.43;10.05;;;3.00;99.90;;;;;;5029342;28;20037;-79
2024/01/07 08:54:56;;;;;;;13.30;9.25;;;3.10;99.90;;;;;;5016030;28;20107;-80
2024/01/07 08:57:22;;;;;;;12.93;9.43;;;3.00;99.90;;;;;;5029751;28;20025;-78
2024/01/07 08:59:48;;;;;;;11.63;9.25;;;3.10;99.90;;;;;;5030240;28;20033;-79
2024/01/07 09:02:13;;;;;;;12.70;9.15;;;3.00;99.90;;;;;;5029537;28;20025;-79
2024/01/07 09:04:39;;;;;;;12.25;9.23;;;3.00;99.90;;;;;;5032006;28;20025;-80
2024/01/07 09:07:05;;;;;;;11.95;8.98;;;3.00;99.90;;;;;;5031429;28;20033;-80
2024/01/07 09:09:30;;;;;;;14.38;10.18;;;3.00;99.90;;;;;;5028149;28;20036;-80
2024/01/07 09:11:57;;;;;;;11.50;9.35;;;3.00;99.90;;;;;;5031255;28;20406;-81
2024/01/07 09:14:25;;;;;;;12.82;9.68;;;3.00;99.90;;;;;;5032315;28;20033;-81
2024/01/07 09:16:50;;;;;;;15.13;10.73;;;3.00;99.90;;;;;;5023461;28;20113;-80
2024/01/07 09:19:17;;;;;;;12.27;9.35;;;3.00;99.90;;;;;;5037217;28;20541;-81
2024/01/07 09:21:43;;;;;;;11.10;8.50;;;3.00;99.90;;;;;;5028710;28;20072;-80
2024/01/07 09:24:09;;;;;;;11.95;9.02;;;3.00;99.90;;;;;;5012076;28;20121;-80
2024/01/07 09:26:34;;;;;;;11.63;9.20;;;3.10;99.90;;;;;;5027711;28;20128;-81
2024/01/07 09:29:01;;;;;;;10.50;9.07;;;3.00;99.90;;;;;;5018371;28;20056;-80
2024/01/07 09:31:27;;;;;;;14.10;9.52;;;3.00;99.90;;;;;;5023396;28;20103;-80
2024/01/07 09:33:52;;;;;;;11.98;8.43;;;3.00;99.90;;;;;;5033083;28;20040;-81
2024/01/07 09:36:18;;;;;;;10.07;8.98;;;3.00;99.90;;;;;;5029855;28;20026;-81
2024/01/07 09:38:44;;;;;;;12.32;7.75;;;3.00;99.90;;;;;;5032782;28;20030;-80
2024/01/07 09:41:09;;;;;;;10.95;8.30;;;3.00;99.90;;;;;;5028588;28;20112;-79
2024/01/07 09:43:35;;;;;;;10.35;7.97;;;3.00;99.90;;;;;;5030419;28;20026;-81
2024/01/07 09:46:03;;;;;;;10.07;8.82;;;3.00;99.90;;;;;;5031029;28;20163;-81
2024/01/07 09:48:29;;;;;;;12.40;8.25;;;3.00;99.90;;;;;;5031052;28;20037;-80
2024/01/07 09:50:56;;;;;;;10.30;8.02;;;3.00;99.90;;;;;;5030109;28;20033;-80
2024/01/07 09:53:25;;;;;;;8.65;7.85;;;3.00;99.90;;;;;;5023228;28;20021;-80
2024/01/07 09:56:25;;;;;;;10.07;7.63;;;3.00;99.90;;;;;;5029307;28;20044;-80
2024/01/07 09:58:50;;;;;;;9.80;7.75;;;3.00;99.90;;;;;;5030252;28;20116;-80
2024/01/07 10:01:17;;;;;;;11.75;8.32;;;3.00;99.90;;;;;;5023394;28;20582;-81
2024/01/07 10:03:44;;;;;;;9.30;7.70;;;3.00;99.90;;;;;;5021334;28;20037;-80
2024/01/07 10:06:13;;;;;;;9.95;8.52;;;3.00;99.90;;;;;;5024539;28;20029;-82
2024/01/07 10:08:40;;;;;;;13.65;8.02;;;3.00;99.90;;;;;;5030819;28;20037;-81
2024/01/07 10:11:09;;;;;;;12.77;8.52;;;3.00;99.90;;;;;;5030467;28;20381;-82
2024/01/07 10:13:34;;;;;;;11.98;7.75;;;3.00;99.90;;;;;;5018060;28;20022;-82
2024/01/07 10:16:00;;;;;;;12.43;8.15;;;3.00;99.90;;;;;;5019490;28;20477;-82
2024/01/07 10:18:25;;;;;;;10.38;8.60;;;3.00;99.90;;;;;;5030725;28;20404;-82
2024/01/07 10:20:52;;;;;;;9.55;7.30;;;3.00;99.90;;;;;;5028875;28;20116;-83
2024/01/07 10:23:20;;;;;;;13.15;8.43;;;3.00;99.90;;;;;;5019769;28;20022;-82
2024/01/07 10:25:47;;;;;;;10.60;9.02;;;3.00;99.90;;;;;;5020531;28;20049;-80
2024/01/07 10:28:14;;;;;;;11.07;9.02;;;3.00;99.90;;;;;;5026965;28;20029;-79
2024/01/07 10:30:40;;;;;;;12.82;8.73;;;3.00;99.90;;;;;;5023067;28;20145;-80
2024/01/07 10:33:07;;;;;;;10.98;9.23;;;3.00;99.90;;;;;;5018442;28;20108;-81
2024/01/07 10:35:34;;;;;;;8.73;7.82;;;3.10;99.90;;;;;;5029688;28;20025;-81
2024/01/07 10:38:00;;;;;;;9.70;8.70;;;3.10;99.90;;;;;;5030187;28;20048;-80
2024/01/07 10:40:29;;;;;;;10.65;8.60;;;3.10;99.90;;;;;;5029894;28;20024;-80
2024/01/07 10:42:55;;;;;;;12.02;7.85;;;3.10;99.90;;;;;;5023359;28;20473;-81
2024/01/07 10:45:22;;;;;;;9.18;8.10;;;3.10;99.90;;;;;;5011562;28;20109;-80
2024/01/07 10:47:54;;;;;;;11.10;8.18;;;3.10;99.90;;;;;;5023127;28;20512;-82
2024/01/07 10:50:21;;;;;;;9.98;7.30;;;3.00;99.90;;;;;;5014587;28;20046;-83
2024/01/07 10:52:57;;;;;;;10.07;7.18;;;3.00;99.90;;;;;;5020854;28;20029;-79
2024/01/07 10:55:25;;;;;;;8.90;6.70;;;3.00;99.90;;;;;;5030588;28;20032;-82
2024/01/07 10:57:53;;;;;;;11.40;6.93;;;3.00;99.90;;;;;;5022722;28;20120;-79
2024/01/07 11:00:19;;;;;;;11.65;8.70;;;3.00;99.90;;;;;;5024765;28;20057;-81
2024/01/07 11:03:28;;;;;;;8.27;7.07;;;3.00;99.90;;;;;;5020643;28;20520;-82
2024/01/07 11:06:25;;;;;;;11.52;7.53;;;3.00;99.90;;;;;;5032647;28;20041;-82
2024/01/07 11:09:03;;;;;;;8.77;6.80;;;3.50;99.90;;;;;;5028245;28;20079;-82
2024/01/07 11:11:42;;;;;;;8.90;6.63;;;3.00;99.90;;;;;;5030658;28;20041;-81
2024/01/07 11:14:36;;;;;;;9.55;6.95;;;3.00;99.90;;;;;;5019230;28;20041;-81
2024/01/07 11:17:04;;;;;;;7.95;5.88;;;3.00;99.90;;;;;;5023885;28;20061;-83
2024/01/07 11:19:30;;;;;;;8.30;5.57;;;3.00;99.90;;;;;;5027575;28;20654;-82
2024/01/07 11:22:22;;;;;;;6.90;5.78;;;3.00;99.90;;;;;;5013895;28;20478;-82
2024/01/07 11:24:47;;;;;;;6.13;5.53;;;3.00;99.90;;;;;;5021825;28;20038;-79
2024/01/07 11:27:13;;;;;;;8.13;5.40;;;3.00;99.90;;;;;;5024117;28;20425;-80
2024/01/07 11:29:38;;;;;;;7.55;5.88;;;3.10;99.90;;;;;;5013450;28;20060;-79
2024/01/07 11:32:06;;;;;;;7.85;5.85;;;3.00;99.90;;;;;;5014764;28;20543;-81
2024/01/07 11:34:47;;;;;;;10.55;5.82;;;3.00;99.90;;;;;;5025215;28;20113;-80
2024/01/07 11:37:13;;;;;;;6.70;5.22;;;3.00;99.90;;;;;;5013420;28;20079;-79
2024/01/07 11:39:43;;;;;;;9.63;5.18;;;3.00;99.90;;;;;;5019325;28;20083;-78
2024/01/07 11:42:09;;;;;;;8.77;5.47;;;3.80;99.90;;;;;;5020433;28;20022;-81
2024/01/07 11:44:36;;;;;;;7.07;5.55;;;3.00;99.90;;;;;;5013764;28;20172;-82
2024/01/07 11:47:04;;;;;;;8.13;4.75;;;3.00;99.90;;;;;;5024442;28;20026;-84
2024/01/07 11:49:30;;;;;;;5.20;4.75;;;3.00;99.90;;;;;;5024204;28;20048;-81
2024/01/07 11:51:55;;;;;;;4.45;4.05;;;3.00;99.90;;;;;;5032466;28;20021;-82
2024/01/07 11:54:21;;;;;;;5.68;4.03;;;3.00;99.90;;;;;;5018932;28;20037;-80
2024/01/07 11:56:47;;;;;;;7.30;4.47;;;3.10;99.90;;;;;;5022988;28;20017;-80
2024/01/07 11:59:12;;;;;;;5.05;4.18;;;3.00;99.90;;;;;;5027896;28;20108;-80
2024/01/07 12:01:38;;;;;;;5.07;4.03;;;3.00;99.90;;;;;;5033266;28;20499;-82
2024/01/07 12:04:04;;;;;;;4.13;3.70;;;3.10;99.90;;;;;;5023426;28;20485;-83
2024/01/07 12:06:30;;;;;;;5.35;4.22;;;3.10;99.90;;;;;;5029741;28;20030;-80
2024/01/07 12:08:55;;;;;;;5.80;4.32;;;3.10;99.90;;;;;;5028783;28;20040;-82
2024/01/07 12:11:21;;;;;;;6.95;4.55;;;3.10;99.90;;;;;;5013271;28;20028;-82
2024/01/07 12:13:47;;;;;;;5.80;4.03;;;3.10;99.90;;;;;;5024207;28;20033;-81
2024/01/07 12:16:12;;;;;;;6.13;3.63;;;3.10;99.90;;;;;;5017080;28;20108;-82
2024/01/07 12:18:39;;;;;;;4.75;3.90;;;3.10;99.90;;;;;;5029158;28;20025;-82
2024/01/07 12:21:05;;;;;;;5.57;3.75;;;3.10;99.90;;;;;;5023039;28;20026;-82
2024/01/07 12:23:36;;;;;;;4.43;3.88;;;3.10;99.90;;;;;;5020766;28;20025;-81
2024/01/07 12:26:09;;;;;;;5.90;4.38;;;3.10;99.90;;;;;;5030589;28;20488;-81
2024/01/07 12:28:35;;;;;;;4.32;3.70;;;3.10;99.90;;;;;;5027340;28;20029;-81
2024/01/07 12:31:01;;;;;;;4.63;3.22;;;3.10;99.90;;;;;;5028751;28;20045;-81
2024/01/07 12:33:29;;;;;;;4.55;3.45;;;3.10;99.90;;;;;;5020211;28;20104;-81
2024/01/07 12:35:55;;;;;;;4.57;3.42;;;3.10;99.90;;;;;;5015156;28;20121;-80
2024/01/07 12:38:27;;;;;;;4.13;3.00;;;3.20;99.90;;;;;;5025515;28;20104;-81
2024/01/07 12:40:53;;;;;;;4.50;3.55;;;3.30;99.90;;;;;;5028882;28;20447;-81
2024/01/07 12:43:20;;;;;;;4.28;3.70;;;3.30;99.90;;;;;;5031963;28;20026;-81